Nettlecreek, Illinois
Current Conditions -  °F | °C
As of 10:55 AM on Friday 24 Oct 2014 (Local Time) from KC09 Reporting Station
Scattered Clouds Scattered Clouds  
Wind Chill: 58°   Ceiling: Unl
Heat Index: 58°   Visibility: 10mi
Dew Point: 51°   Wind: 5mph
Humidity: 79%   Direction: 210°SSW
Pressure: 30.06"   Gusts: NA
Location:  41.5124°N, 88.5214°W
Report Text: KC09 241555Z AUTO 21004KT 10SM SCT014 14/11 A3006 RMK AO2 T01430107
Loading
Personal Weather Stations






























Interactive Weather Map
Tropical Storm Tracking
New forecast layout! Learn more

10-Day Weather Forecast

Advertisements
Track Severe Weather on mobile